createdAt,value
2018-02-10T00:00:01.078Z,36.20
2018-02-10T00:02:28.381Z,36.30
2018-02-10T00:04:54.692Z,36.30
2018-02-10T00:07:20.938Z,36.30
2018-02-10T00:09:47.165Z,36.30
2018-02-10T00:12:13.411Z,36.30
2018-02-10T00:14:40.361Z,36.30
2018-02-10T00:17:06.643Z,36.30
2018-02-10T00:19:32.883Z,36.30
2018-02-10T00:21:59.123Z,36.30
2018-02-10T00:24:25.726Z,36.30
2018-02-10T00:26:51.962Z,36.30
2018-02-10T00:29:18.219Z,36.40
2018-02-10T00:31:44.519Z,36.30
2018-02-10T00:34:10.795Z,36.20
2018-02-10T00:36:37.025Z,36.30
2018-02-10T00:39:03.251Z,36.20
2018-02-10T00:41:29.496Z,36.30
2018-02-10T00:43:55.730Z,36.30
2018-02-10T00:46:21.950Z,36.30
2018-02-10T00:48:48.190Z,36.30
2018-02-10T00:51:15.215Z,36.30
2018-02-10T00:53:41.484Z,36.30
2018-02-10T00:56:07.749Z,36.40
2018-02-10T00:58:33.983Z,36.30
2018-02-10T01:01:00.219Z,36.30
2018-02-10T01:03:26.450Z,36.30
2018-02-10T01:05:52.718Z,36.30
2018-02-10T01:08:18.983Z,36.30
2018-02-10T01:10:45.238Z,36.30
2018-02-10T01:13:11.832Z,36.40
2018-02-10T01:15:38.473Z,36.30
2018-02-10T01:18:05.865Z,36.40
2018-02-10T01:20:32.129Z,36.40
2018-02-10T01:22:58.358Z,36.40
2018-02-10T01:25:24.631Z,36.40
2018-02-10T01:27:50.851Z,36.30
2018-02-10T01:30:17.074Z,36.30
2018-02-10T01:32:43.330Z,36.40
2018-02-10T01:35:09.584Z,36.30
2018-02-10T01:37:35.829Z,36.20
2018-02-10T01:40:02.085Z,36.40
2018-02-10T01:42:28.355Z,36.30
2018-02-10T01:44:54.617Z,36.30
2018-02-10T01:47:20.871Z,36.30
2018-02-10T01:49:47.095Z,36.30
2018-02-10T01:52:13.341Z,36.40
2018-02-10T01:54:39.594Z,36.30
2018-02-10T01:57:06.611Z,36.40
2018-02-10T01:59:32.876Z,36.40
2018-02-10T02:01:59.144Z,36.30
2018-02-10T02:04:25.466Z,36.40
2018-02-10T02:06:51.724Z,36.40
2018-02-10T02:09:18.532Z,36.30
2018-02-10T02:11:46.255Z,36.40
2018-02-10T02:14:12.479Z,36.30
2018-02-10T02:16:38.739Z,36.40
2018-02-10T02:19:04.966Z,36.40
2018-02-10T02:21:31.202Z,36.40
2018-02-10T02:23:57.435Z,36.40
2018-02-10T02:26:23.651Z,36.40
2018-02-10T02:28:50.993Z,36.40
2018-02-10T02:31:17.211Z,36.40
2018-02-10T02:33:43.489Z,36.40
2018-02-10T02:36:09.711Z,36.40
2018-02-10T02:38:35.943Z,36.40
2018-02-10T02:41:02.180Z,36.40
2018-02-10T02:43:28.420Z,36.40
2018-02-10T02:45:54.661Z,36.50
2018-02-10T02:48:20.906Z,36.40
2018-02-10T02:50:47.198Z,36.50
2018-02-10T02:53:13.703Z,36.40
2018-02-10T02:55:39.935Z,36.40
2018-02-10T02:58:06.164Z,36.50
2018-02-10T03:00:32.401Z,36.30
2018-02-10T03:02:58.684Z,36.40
2018-02-10T03:05:25.613Z,36.40
2018-02-10T03:07:51.900Z,36.40
2018-02-10T03:10:18.146Z,36.40
2018-02-10T03:12:44.402Z,36.40
2018-02-10T03:15:10.651Z,36.40
2018-02-10T03:17:36.904Z,36.40
2018-02-10T03:20:03.166Z,36.50
2018-02-10T03:22:29.383Z,36.40
2018-02-10T03:24:56.373Z,36.50
2018-02-10T03:27:22.650Z,36.50
2018-02-10T03:29:49.591Z,36.50
2018-02-10T03:32:15.822Z,36.40
2018-02-10T03:34:42.072Z,36.50
2018-02-10T03:37:09.862Z,36.40
2018-02-10T03:39:36.573Z,36.40
2018-02-10T03:42:02.810Z,36.40
2018-02-10T03:44:29.066Z,36.40
2018-02-10T03:46:55.604Z,36.50
2018-02-10T03:49:21.822Z,36.40
2018-02-10T03:51:48.102Z,36.50
2018-02-10T03:54:14.335Z,36.50
2018-02-10T03:56:40.556Z,36.40
2018-02-10T03:59:06.791Z,36.50
2018-02-10T04:01:33.045Z,36.50
2018-02-10T04:03:59.347Z,36.50
2018-02-10T04:06:25.599Z,36.50
2018-02-10T04:08:51.853Z,36.50
2018-02-10T04:11:18.107Z,36.50
2018-02-10T04:13:44.365Z,36.50
2018-02-10T04:16:10.605Z,36.60
2018-02-10T04:18:37.635Z,36.50
2018-02-10T04:21:04.743Z,36.50
2018-02-10T04:23:31.690Z,36.20
2018-02-10T04:25:57.969Z,36.50
2018-02-10T04:28:24.557Z,36.50
2018-02-10T04:30:51.407Z,36.50
2018-02-10T04:33:17.675Z,36.50
2018-02-10T04:35:43.913Z,36.60
2018-02-10T04:38:10.210Z,36.50
2018-02-10T04:40:36.450Z,36.60
2018-02-10T04:43:02.702Z,36.50
2018-02-10T04:45:28.926Z,36.50
2018-02-10T04:47:55.178Z,36.60
2018-02-10T04:50:21.438Z,36.60
2018-02-10T04:52:47.686Z,36.50
2018-02-10T04:55:13.916Z,36.50
2018-02-10T04:57:40.154Z,36.50
2018-02-10T05:00:07.246Z,36.50
2018-02-10T05:02:33.490Z,36.60
2018-02-10T05:05:00.105Z,36.60
2018-02-10T05:07:26.331Z,36.50
2018-02-10T05:09:52.592Z,36.60
2018-02-10T05:12:18.858Z,36.50
2018-02-10T05:14:45.123Z,37.10
2018-02-10T05:17:11.371Z,36.60
2018-02-10T05:19:37.596Z,36.60
2018-02-10T05:22:03.850Z,36.60
2018-02-10T05:24:30.858Z,36.60
2018-02-10T05:26:57.136Z,36.60
2018-02-10T05:29:23.368Z,36.60
2018-02-10T05:31:49.607Z,36.60
2018-02-10T05:34:16.623Z,36.70
2018-02-10T05:36:42.877Z,36.60
2018-02-10T05:39:09.166Z,36.60
2018-02-10T05:41:35.409Z,36.60
2018-02-10T05:44:01.652Z,36.60
2018-02-10T05:46:27.886Z,36.60
2018-02-10T05:48:54.115Z,36.60
2018-02-10T05:51:20.375Z,36.50
2018-02-10T05:53:46.629Z,36.60
2018-02-10T05:56:12.873Z,36.70
2018-02-10T05:58:39.170Z,37.20
2018-02-10T06:01:05.430Z,36.60
2018-02-10T06:03:32.270Z,36.60
2018-02-10T06:05:58.553Z,36.60
2018-02-10T06:08:24.811Z,36.60
2018-02-10T06:10:51.047Z,36.70
2018-02-10T06:13:17.515Z,36.60
2018-02-10T06:15:45.138Z,36.90
2018-02-10T06:18:11.389Z,36.60
2018-02-10T06:20:37.627Z,36.70
2018-02-10T06:23:03.889Z,36.50
2018-02-10T06:25:30.159Z,35.80
2018-02-10T06:27:57.158Z,35.10
2018-02-10T06:30:23.402Z,34.70
2018-02-10T06:32:50.343Z,34.10
2018-02-10T06:35:16.597Z,33.80
2018-02-10T06:37:42.819Z,33.70
2018-02-10T06:40:09.076Z,34.50
2018-02-10T06:42:35.362Z,34.90
2018-02-10T06:45:02.206Z,35.10
2018-02-10T06:47:28.439Z,35.30
2018-02-10T06:49:54.674Z,35.30
2018-02-10T06:52:20.981Z,35.30
2018-02-10T06:54:47.226Z,35.40
2018-02-10T06:57:13.474Z,35.50
2018-02-10T06:59:39.753Z,35.60
2018-02-10T07:02:06.697Z,35.80
2018-02-10T07:04:32.951Z,35.70
2018-02-10T07:06:59.195Z,35.80
2018-02-10T07:09:25.601Z,36.30
2018-02-10T07:11:51.880Z,36.40
2018-02-10T07:14:18.149Z,36.50
2018-02-10T07:16:44.438Z,36.70
2018-02-10T07:19:10.685Z,36.90
2018-02-10T07:21:36.947Z,37.00
2018-02-10T07:24:03.183Z,36.80
2018-02-10T07:26:29.402Z,36.40
2018-02-10T07:28:55.694Z,37.00
2018-02-10T07:31:21.954Z,36.90
2018-02-10T07:33:48.239Z,36.90
2018-02-10T07:36:14.464Z,36.80
2018-02-10T07:38:40.699Z,36.90
2018-02-10T07:41:06.927Z,36.90
2018-02-10T07:43:33.185Z,36.90
2018-02-10T07:45:59.436Z,36.90
2018-02-10T07:48:25.685Z,36.90
2018-02-10T07:50:51.961Z,36.90
2018-02-10T07:53:18.218Z,37.00
2018-02-10T07:55:44.462Z,37.50
2018-02-10T07:58:10.685Z,37.00
2018-02-10T08:00:36.927Z,37.00
2018-02-10T08:03:03.154Z,37.00
2018-02-10T08:05:30.152Z,37.10
2018-02-10T08:07:56.426Z,37.10
2018-02-10T08:10:22.695Z,37.10
2018-02-10T08:12:48.946Z,37.10
2018-02-10T08:15:15.172Z,37.10
2018-02-10T08:17:41.443Z,37.10
2018-02-10T08:20:07.754Z,37.20
2018-02-10T08:22:33.977Z,37.10
2018-02-10T08:25:00.246Z,37.20
2018-02-10T08:27:26.462Z,37.10
2018-02-10T08:29:52.729Z,37.20
2018-02-10T08:32:18.975Z,37.20
2018-02-10T08:34:45.242Z,37.20
2018-02-10T08:37:11.470Z,37.30
2018-02-10T08:39:37.695Z,37.30
2018-02-10T08:42:03.955Z,37.30
2018-02-10T08:44:30.189Z,37.30
2018-02-10T08:46:56.420Z,37.30
2018-02-10T08:49:23.025Z,37.30
2018-02-10T08:51:49.983Z,37.30
2018-02-10T08:54:16.220Z,37.30
2018-02-10T08:56:42.469Z,37.30
2018-02-10T08:59:08.745Z,37.30
2018-02-10T09:01:35.302Z,37.30
2018-02-10T09:04:01.562Z,37.30
2018-02-10T09:06:27.822Z,37.30
2018-02-10T09:08:54.093Z,37.30
2018-02-10T09:11:21.091Z,37.30
2018-02-10T09:13:47.326Z,37.30
2018-02-10T09:16:13.879Z,37.30
2018-02-10T09:18:40.134Z,37.30
2018-02-10T09:21:07.009Z,37.30
2018-02-10T09:23:33.653Z,37.30
2018-02-10T09:26:00.659Z,37.30
2018-02-10T09:28:26.905Z,37.30
2018-02-10T09:30:53.139Z,37.30
2018-02-10T09:33:19.418Z,37.30
2018-02-10T09:35:46.411Z,37.40
2018-02-10T09:38:13.374Z,37.40
2018-02-10T09:40:39.627Z,37.30
2018-02-10T09:43:06.635Z,37.30
2018-02-10T09:45:32.855Z,37.40
2018-02-10T09:47:59.661Z,37.30
2018-02-10T09:50:25.939Z,37.40
2018-02-10T09:52:52.159Z,37.40
2018-02-10T09:55:20.198Z,37.40
2018-02-10T09:57:46.445Z,37.30
2018-02-10T10:00:12.732Z,37.40
2018-02-10T10:02:38.978Z,37.30
2018-02-10T10:05:05.225Z,37.30
2018-02-10T10:07:31.505Z,37.40
2018-02-10T10:09:57.757Z,37.40
2018-02-10T10:12:24.010Z,37.40
2018-02-10T10:14:50.241Z,37.30
2018-02-10T10:17:16.495Z,37.40
2018-02-10T10:19:42.749Z,37.30
2018-02-10T10:22:08.997Z,37.30
2018-02-10T10:24:35.265Z,37.80
2018-02-10T10:27:01.503Z,37.30
2018-02-10T10:29:28.827Z,37.30
2018-02-10T10:31:55.072Z,37.30
2018-02-10T10:34:21.291Z,37.30
2018-02-10T10:36:47.544Z,37.30
2018-02-10T10:39:13.786Z,37.30
2018-02-10T10:41:40.453Z,37.30
2018-02-10T10:44:07.026Z,37.30
2018-02-10T10:46:33.251Z,37.30
2018-02-10T10:49:00.201Z,37.40
2018-02-10T10:51:26.508Z,37.40
2018-02-10T10:53:52.758Z,37.30
2018-02-10T10:56:19.696Z,37.40
2018-02-10T10:58:45.966Z,37.30
2018-02-10T11:01:13.162Z,37.30
2018-02-10T11:03:39.426Z,37.30
2018-02-10T11:06:05.674Z,37.30
2018-02-10T11:08:31.910Z,37.40
2018-02-10T11:10:58.177Z,37.30
2018-02-10T11:13:24.422Z,37.30
2018-02-10T11:15:50.691Z,37.40
2018-02-10T11:18:16.927Z,37.30
2018-02-10T11:20:43.163Z,37.40
2018-02-10T11:23:09.402Z,37.30
2018-02-10T11:25:35.639Z,37.30
2018-02-10T11:28:01.893Z,37.40
2018-02-10T11:30:28.141Z,37.40
2018-02-10T11:32:54.436Z,37.30
2018-02-10T11:35:20.702Z,37.30
2018-02-10T11:37:46.942Z,37.30
2018-02-10T11:40:13.172Z,37.30
2018-02-10T11:42:39.394Z,37.30
2018-02-10T11:45:05.656Z,37.20
2018-02-10T11:47:32.306Z,37.30
2018-02-10T11:49:59.383Z,37.20
2018-02-10T11:52:26.762Z,37.20
2018-02-10T11:54:53.772Z,37.20
2018-02-10T11:57:20.009Z,37.10
2018-02-10T11:59:47.032Z,37.20
2018-02-10T12:02:13.294Z,37.30
2018-02-10T12:04:39.519Z,37.20
2018-02-10T12:07:05.813Z,37.20
2018-02-10T12:09:32.044Z,37.20
2018-02-10T12:11:58.520Z,37.20
2018-02-10T12:14:24.782Z,37.20
2018-02-10T12:16:51.037Z,37.20
2018-02-10T12:19:17.520Z,37.20
2018-02-10T12:21:43.977Z,37.20
2018-02-10T12:24:10.276Z,37.20
2018-02-10T12:26:36.511Z,37.30
2018-02-10T12:29:02.743Z,37.30
2018-02-10T12:31:29.777Z,37.20
2018-02-10T12:33:57.069Z,37.30
2018-02-10T12:36:23.291Z,37.20
2018-02-10T12:38:50.251Z,37.30
2018-02-10T12:41:16.535Z,37.30
2018-02-10T12:43:42.811Z,37.30
2018-02-10T12:46:09.041Z,37.20
2018-02-10T12:48:36.767Z,37.30
2018-02-10T12:51:03.067Z,37.30
2018-02-10T12:53:29.687Z,37.30
2018-02-10T12:55:55.915Z,37.30
2018-02-10T12:58:22.891Z,37.30
2018-02-10T13:00:49.161Z,37.30
2018-02-10T13:03:15.418Z,37.30
2018-02-10T13:05:42.393Z,37.30
2018-02-10T13:08:08.638Z,37.30
2018-02-10T13:10:35.238Z,37.40
2018-02-10T13:13:01.466Z,37.80
2018-02-10T13:15:27.715Z,37.30
2018-02-10T13:17:53.966Z,37.30
2018-02-10T13:20:20.962Z,37.40
2018-02-10T13:22:47.233Z,37.40
2018-02-10T13:25:13.451Z,37.30
2018-02-10T13:27:39.702Z,37.40
2018-02-10T13:30:05.970Z,37.30
2018-02-10T13:32:32.213Z,37.40
2018-02-10T13:34:59.211Z,37.90
2018-02-10T13:37:25.851Z,37.40
2018-02-10T13:39:52.094Z,37.40
2018-02-10T13:42:18.360Z,37.40
2018-02-10T13:44:45.367Z,37.50
2018-02-10T13:47:11.652Z,37.40
2018-02-10T13:49:37.882Z,37.50
2018-02-10T13:52:04.239Z,37.50
2018-02-10T13:54:30.493Z,37.40
2018-02-10T13:56:56.733Z,37.30
2018-02-10T13:59:22.983Z,37.40
2018-02-10T14:01:49.230Z,37.40
2018-02-10T14:04:15.492Z,37.40
2018-02-10T14:06:41.749Z,37.40
2018-02-10T14:09:08.366Z,37.40
2018-02-10T14:11:34.613Z,37.40
2018-02-10T14:14:00.855Z,37.40
2018-02-10T14:16:27.155Z,37.40
2018-02-10T14:18:53.405Z,37.50
2018-02-10T14:21:20.471Z,37.50
2018-02-10T14:23:47.489Z,37.60
2018-02-10T14:26:13.778Z,37.60
2018-02-10T14:28:40.214Z,37.50
2018-02-10T14:31:06.478Z,37.50
2018-02-10T14:33:32.714Z,37.50
2018-02-10T14:35:58.969Z,37.50
2018-02-10T14:38:25.265Z,37.60
2018-02-10T14:40:51.533Z,37.60
2018-02-10T14:43:17.826Z,37.50
2018-02-10T14:45:44.081Z,37.60
2018-02-10T14:48:10.340Z,37.60
2018-02-10T14:50:36.583Z,37.60
2018-02-10T14:53:02.826Z,37.60
2018-02-10T14:55:29.086Z,37.60
2018-02-10T14:57:55.746Z,37.50
2018-02-10T15:00:22.019Z,37.50
2018-02-10T15:02:48.893Z,37.60
2018-02-10T15:05:15.548Z,37.50
2018-02-10T15:07:41.828Z,37.50
2018-02-10T15:10:08.806Z,37.50
2018-02-10T15:12:35.746Z,37.50
2018-02-10T15:15:02.040Z,37.60
2018-02-10T15:17:29.289Z,37.60
2018-02-10T15:19:55.621Z,37.50
2018-02-10T15:22:22.649Z,37.60
2018-02-10T15:24:48.926Z,37.50
2018-02-10T15:27:15.163Z,37.50
2018-02-10T15:29:41.457Z,37.50
2018-02-10T15:32:07.784Z,37.50
2018-02-10T15:34:34.786Z,37.50
2018-02-10T15:37:01.039Z,37.50
2018-02-10T15:39:27.556Z,37.50
2018-02-10T15:41:53.828Z,37.50
2018-02-10T15:44:20.059Z,37.50
2018-02-10T15:46:46.319Z,37.50
2018-02-10T15:49:12.622Z,37.50
2018-02-10T15:51:38.881Z,37.50
2018-02-10T15:54:05.180Z,37.50
2018-02-10T15:56:31.435Z,37.50
2018-02-10T15:58:58.406Z,37.50
2018-02-10T16:01:24.659Z,37.50
2018-02-10T16:03:50.903Z,37.50
2018-02-10T16:06:17.560Z,37.50
2018-02-10T16:08:43.795Z,37.50
2018-02-10T16:11:10.807Z,37.50
2018-02-10T16:13:37.077Z,37.50
2018-02-10T16:16:03.299Z,37.50
2018-02-10T16:18:30.263Z,37.50
2018-02-10T16:20:56.487Z,37.50
2018-02-10T16:23:23.467Z,37.50
2018-02-10T16:25:50.473Z,37.50
2018-02-10T16:28:16.723Z,37.50
2018-02-10T16:30:42.947Z,37.50
2018-02-10T16:33:09.175Z,37.40
2018-02-10T16:35:35.403Z,37.50
2018-02-10T16:38:01.676Z,37.50
2018-02-10T16:40:28.708Z,37.50
2018-02-10T16:42:54.947Z,37.50
2018-02-10T16:45:21.195Z,37.50
2018-02-10T16:47:47.438Z,37.50
2018-02-10T16:50:15.184Z,37.40
2018-02-10T16:52:41.409Z,37.50
2018-02-10T16:55:07.673Z,37.40
2018-02-10T16:57:34.704Z,37.50
2018-02-10T17:00:00.941Z,37.40
2018-02-10T17:02:27.185Z,37.40
2018-02-10T17:04:53.423Z,37.40
2018-02-10T17:07:20.424Z,37.40
2018-02-10T17:09:46.679Z,37.80
2018-02-10T17:12:12.942Z,37.50
2018-02-10T17:14:39.222Z,37.50
2018-02-10T17:17:05.451Z,37.40
2018-02-10T17:19:31.727Z,37.40
2018-02-10T17:21:57.939Z,37.40
2018-02-10T17:24:24.545Z,37.40
2018-02-10T17:26:50.791Z,37.40
2018-02-10T17:29:17.037Z,37.40
2018-02-10T17:31:43.886Z,37.40
2018-02-10T17:34:10.829Z,37.40
2018-02-10T17:36:37.674Z,37.40
2018-02-10T17:39:03.919Z,37.40
2018-02-10T17:41:30.627Z,37.40
2018-02-10T17:43:57.620Z,37.40
2018-02-10T17:46:23.885Z,37.40
2018-02-10T17:48:50.165Z,37.40
2018-02-10T17:51:16.402Z,37.40
2018-02-10T17:53:42.674Z,37.40
2018-02-10T17:56:08.926Z,37.40
2018-02-10T17:58:35.147Z,37.40
2018-02-10T18:01:01.374Z,37.40
2018-02-10T18:03:27.627Z,37.40
2018-02-10T18:05:53.919Z,37.40
2018-02-10T18:08:20.170Z,37.40
2018-02-10T18:10:46.807Z,37.40
2018-02-10T18:13:13.054Z,37.40
2018-02-10T18:15:39.277Z,37.90
2018-02-10T18:18:05.507Z,37.40
2018-02-10T18:20:31.774Z,37.40
2018-02-10T18:22:58.053Z,37.40
2018-02-10T18:25:24.289Z,37.40
2018-02-10T18:27:50.531Z,37.40
2018-02-10T18:30:16.786Z,37.40
2018-02-10T18:32:43.027Z,37.40
2018-02-10T18:35:09.282Z,37.40
2018-02-10T18:37:35.519Z,37.40
2018-02-10T18:40:01.780Z,37.40
2018-02-10T18:42:28.001Z,37.40
2018-02-10T18:44:54.253Z,37.50
2018-02-10T18:47:20.491Z,37.50
2018-02-10T18:49:47.519Z,37.50
2018-02-10T18:52:13.747Z,37.90
2018-02-10T18:54:40.026Z,37.30
2018-02-10T18:57:06.284Z,37.40
2018-02-10T18:59:33.128Z,37.40
2018-02-10T19:01:59.900Z,37.30
2018-02-10T19:04:26.157Z,37.30
2018-02-10T19:06:52.434Z,37.40
2018-02-10T19:09:18.690Z,37.30
2018-02-10T19:11:45.341Z,37.40
2018-02-10T19:14:11.629Z,37.30
2018-02-10T19:16:38.659Z,37.50
2018-02-10T19:19:04.910Z,37.30
2018-02-10T19:21:31.161Z,37.40
2018-02-10T19:23:57.395Z,37.30
2018-02-10T19:26:24.725Z,37.50
2018-02-10T19:28:50.966Z,37.40
2018-02-10T19:31:17.235Z,37.40
2018-02-10T19:33:43.460Z,37.40
2018-02-10T19:36:10.453Z,37.40
2018-02-10T19:38:36.707Z,37.40
2018-02-10T19:41:02.966Z,37.30
2018-02-10T19:43:29.478Z,37.40
2018-02-10T19:45:55.742Z,37.30
2018-02-10T19:48:22.015Z,37.40
2018-02-10T19:50:48.495Z,37.40
2018-02-10T19:53:14.776Z,37.30
2018-02-10T19:55:41.465Z,37.40
2018-02-10T19:58:07.705Z,37.30
2018-02-10T20:00:33.965Z,37.40
2018-02-10T20:03:00.370Z,37.40
2018-02-10T20:05:26.648Z,37.40
2018-02-10T20:07:53.647Z,37.40
2018-02-10T20:10:19.872Z,37.40
2018-02-10T20:12:46.118Z,37.40
2018-02-10T20:15:12.343Z,37.90
2018-02-10T20:17:38.598Z,37.30
2018-02-10T20:20:04.879Z,37.40
2018-02-10T20:22:31.944Z,37.40
2018-02-10T20:24:58.195Z,37.30
2018-02-10T20:27:24.792Z,37.30
2018-02-10T20:29:51.022Z,37.30
2018-02-10T20:32:17.271Z,37.30
2018-02-10T20:34:43.530Z,37.30
2018-02-10T20:37:09.802Z,37.30
2018-02-10T20:39:36.093Z,37.30
2018-02-10T20:42:03.098Z,37.40
2018-02-10T20:44:29.346Z,37.40
2018-02-10T20:46:55.566Z,37.30
2018-02-10T20:49:21.804Z,37.30
2018-02-10T20:51:48.050Z,37.30
2018-02-10T20:54:14.301Z,37.30
2018-02-10T20:56:40.559Z,37.30
2018-02-10T20:59:06.939Z,37.30
2018-02-10T21:01:33.882Z,37.30
2018-02-10T21:04:00.120Z,37.30
2018-02-10T21:06:26.392Z,37.30
2018-02-10T21:08:52.647Z,37.30
2018-02-10T21:11:18.898Z,37.30
2018-02-10T21:13:45.161Z,37.30
2018-02-10T21:16:11.409Z,37.30
2018-02-10T21:18:37.665Z,37.30
2018-02-10T21:21:03.918Z,37.30
2018-02-10T21:23:30.151Z,37.30
2018-02-10T21:25:58.047Z,37.30
2018-02-10T21:28:24.289Z,37.30
2018-02-10T21:30:50.581Z,37.30
2018-02-10T21:33:16.833Z,37.30
2018-02-10T21:35:43.832Z,37.30
2018-02-10T21:38:10.075Z,37.30
2018-02-10T21:40:36.312Z,37.30
2018-02-10T21:43:02.543Z,37.30
2018-02-10T21:45:28.799Z,37.30
2018-02-10T21:47:55.102Z,37.30
2018-02-10T21:50:22.023Z,37.30
2018-02-10T21:52:48.284Z,37.30
2018-02-10T21:55:14.532Z,37.30
2018-02-10T21:57:40.793Z,37.30
2018-02-10T22:00:07.739Z,37.30
2018-02-10T22:02:33.964Z,37.30
2018-02-10T22:05:00.510Z,37.20
2018-02-10T22:07:26.744Z,37.20
2018-02-10T22:09:52.970Z,37.30
2018-02-10T22:12:19.199Z,37.70
2018-02-10T22:14:45.432Z,37.30
2018-02-10T22:17:11.655Z,37.20
2018-02-10T22:19:37.876Z,37.30
2018-02-10T22:22:04.158Z,37.30
2018-02-10T22:24:30.402Z,37.20
2018-02-10T22:26:56.650Z,37.30
2018-02-10T22:29:23.655Z,37.30
2018-02-10T22:31:50.111Z,37.20
2018-02-10T22:34:16.340Z,37.20
2018-02-10T22:36:42.606Z,37.30
2018-02-10T22:39:08.883Z,37.20
2018-02-10T22:41:35.108Z,37.20
2018-02-10T22:44:01.347Z,37.30
2018-02-10T22:46:27.593Z,37.30
2018-02-10T22:48:54.545Z,37.30
2018-02-10T22:51:20.793Z,37.30
2018-02-10T22:53:47.021Z,37.30
2018-02-10T22:56:13.307Z,37.30
2018-02-10T22:58:40.286Z,37.30
2018-02-10T23:01:06.508Z,37.30
2018-02-10T23:03:33.561Z,37.30
2018-02-10T23:05:59.836Z,37.20
2018-02-10T23:08:26.093Z,37.30
2018-02-10T23:10:52.326Z,37.30
2018-02-10T23:13:18.605Z,37.20
2018-02-10T23:15:45.552Z,37.20
2018-02-10T23:18:11.797Z,37.20
2018-02-10T23:20:38.044Z,37.20
2018-02-10T23:23:04.291Z,37.10
2018-02-10T23:25:30.552Z,37.20
2018-02-10T23:27:56.800Z,37.10
2018-02-10T23:30:23.823Z,37.10
2018-02-10T23:32:50.150Z,37.10
2018-02-10T23:35:16.387Z,37.10
2018-02-10T23:37:42.614Z,37.20
2018-02-10T23:40:08.844Z,37.50
2018-02-10T23:42:35.103Z,37.10
2018-02-10T23:45:01.338Z,37.10
2018-02-10T23:47:27.585Z,37.10
2018-02-10T23:49:53.806Z,37.10
2018-02-10T23:52:20.055Z,37.20
2018-02-10T23:54:46.335Z,37.60
2018-02-10T23:57:12.577Z,37.10
2018-02-10T23:59:38.841Z,37.20
